Time;durP1;ratioP1;P1;durP2;ratioP2;P2;SDS_P1;SDS_P2;PMS_P1;PMS_P2;Temp;Humidity;BMP_temperature;BMP_pressure;BME280_temperature;BME280_humidity;BME280_pressure;Samples;Min_cycle;Max_cycle;Signal;HPM_P1;HPM_P2
2023/08/24 00:01:59;;;;;;;11.70;5.82;;;;;;;19.86;60.39;100169.44;5023250;28;20099;-47
2023/08/24 00:04:25;;;;;;;11.40;6.90;;;;;;;19.84;60.67;100179.16;5027112;28;20047;-49
2023/08/24 00:06:52;;;;;;;9.90;5.70;;;;;;;19.82;60.76;100181.00;5016270;28;20041;-43
2023/08/24 00:09:19;;;;;;;10.70;5.45;;;;;;;19.78;60.75;100183.75;5023272;28;20042;-46
2023/08/24 00:11:46;;;;;;;9.65;4.60;;;;;;;19.77;61.05;100168.03;5024253;28;20418;-49
2023/08/24 00:14:13;;;;;;;9.32;5.28;;;;;;;19.76;60.95;100159.28;5025801;28;20045;-45
2023/08/24 00:16:40;;;;;;;9.32;4.72;;;;;;;19.74;61.07;100162.91;5020654;28;20543;-48
2023/08/24 00:19:07;;;;;;;9.57;4.40;;;;;;;19.71;60.85;100160.38;5023438;28;20055;-47
2023/08/24 00:21:36;;;;;;;11.65;4.78;;;;;;;19.67;60.82;100159.66;5025336;28;20069;-46
2023/08/24 00:24:04;;;;;;;8.18;5.10;;;;;;;19.64;60.74;100154.50;5029916;28;20069;-48
2023/08/24 00:26:33;;;;;;;10.27;5.65;;;;;;;19.60;60.87;100148.53;5019982;28;20495;-45
2023/08/24 00:29:02;;;;;;;9.48;5.32;;;;;;;19.58;61.22;100141.59;5023796;28;20075;-46
2023/08/24 00:31:32;;;;;;;9.43;5.30;;;;;;;19.54;61.48;100133.00;5029103;28;20049;-45
2023/08/24 00:34:01;;;;;;;12.30;4.72;;;;;;;19.52;61.78;100143.56;5026820;28;20570;-44
2023/08/24 00:36:29;;;;;;;8.57;5.18;;;;;;;19.50;61.49;100142.78;5015418;28;20046;-44
2023/08/24 00:38:57;;;;;;;8.32;5.65;;;;;;;19.45;61.66;100139.47;5023454;28;20060;-45
2023/08/24 00:41:25;;;;;;;9.57;6.07;;;;;;;19.41;61.46;100143.13;5021433;28;20517;-48
2023/08/24 00:43:54;;;;;;;9.10;4.95;;;;;;;19.36;61.46;100135.41;5025651;28;20049;-48
2023/08/24 00:46:23;;;;;;;7.97;5.35;;;;;;;19.33;61.70;100139.94;5017653;28;20042;-45
2023/08/24 00:48:51;;;;;;;9.88;5.57;;;;;;;19.29;61.72;100140.97;5025586;28;20037;-46
2023/08/24 00:51:20;;;;;;;7.05;5.53;;;;;;;19.27;61.64;100152.41;5021643;28;20045;-44
2023/08/24 00:53:49;;;;;;;11.07;6.50;;;;;;;19.25;61.72;100148.13;5024400;28;20045;-47
2023/08/24 00:56:19;;;;;;;9.63;5.72;;;;;;;19.23;62.27;100135.03;5022403;28;20114;-44
2023/08/24 00:58:48;;;;;;;9.60;4.95;;;;;;;19.21;62.23;100142.13;5020201;28;20067;-44
2023/08/24 01:01:19;;;;;;;11.45;5.75;;;;;;;19.20;62.10;100143.03;5023415;28;20057;-47
2023/08/24 01:03:46;;;;;;;9.35;4.40;;;;;;;19.17;62.34;100151.00;5027826;28;20414;-46
2023/08/24 01:06:13;;;;;;;10.45;5.38;;;;;;;19.16;62.49;100149.31;5022840;28;20412;-43
2023/08/24 01:08:40;;;;;;;9.15;5.38;;;;;;;19.14;62.98;100145.88;5023696;28;20045;-45
2023/08/24 01:11:46;;;;;;;11.50;6.32;;;;;;;19.06;63.24;100147.91;5021253;28;20457;-45
2023/08/24 01:14:26;;;;;;;12.32;4.45;;;;;;;19.09;63.03;100134.69;5023309;28;20683;-47
2023/08/24 01:16:59;;;;;;;10.10;5.43;;;;;;;19.13;62.73;100137.16;5025040;28;20111;-43
2023/08/24 01:22:15;;;;;;;10.50;4.75;;;;;;;19.16;62.75;100123.06;5032243;28;20417;-49
2023/08/24 01:24:51;;;;;;;10.02;4.97;;;;;;;19.14;62.99;100119.63;5031103;28;20046;-43
2023/08/24 01:27:20;;;;;;;11.65;5.07;;;;;;;19.18;63.38;100123.84;5000291;28;20137;-46
2023/08/24 01:29:48;;;;;;;9.77;4.50;;;;;;;19.18;62.92;100126.47;5003134;28;20104;-43
2023/08/24 01:32:15;;;;;;;9.63;4.82;;;;;;;19.20;62.94;100123.78;5001138;28;20050;-47
2023/08/24 01:34:42;;;;;;;10.27;5.03;;;;;;;19.23;63.23;100119.28;5003301;28;20042;-47
2023/08/24 01:37:10;;;;;;;8.60;4.68;;;;;;;19.25;63.20;100133.22;5000400;28;20052;-45
2023/08/24 01:39:46;;;;;;;8.82;4.22;;;;;;;19.26;63.02;100124.41;5003031;28;20072;-44
2023/08/24 01:42:20;;;;;;;8.48;4.95;;;;;;;19.29;63.50;100122.59;5015014;28;20057;-47
2023/08/24 01:44:52;;;;;;;10.02;5.72;;;;;;;19.27;63.46;100120.88;4996212;28;20053;-50
2023/08/24 01:47:21;;;;;;;11.50;5.20;;;;;;;19.26;63.51;100113.06;5000866;28;20046;-46
2023/08/24 01:49:48;;;;;;;10.43;4.65;;;;;;;19.23;63.25;100102.69;5002443;28;20046;-43
2023/08/24 01:52:15;;;;;;;10.55;4.63;;;;;;;19.24;63.30;100104.38;5001528;28;20066;-43
2023/08/24 01:54:43;;;;;;;9.00;4.60;;;;;;;19.25;63.40;100101.69;5002285;28;20042;-45
2023/08/24 01:57:10;;;;;;;12.60;4.65;;;;;;;19.26;63.73;100103.41;5019680;28;20717;-48
2023/08/24 01:59:37;;;;;;;10.35;4.95;;;;;;;19.27;63.66;100102.50;5000176;28;20225;-44
2023/08/24 02:02:04;;;;;;;10.43;4.47;;;;;;;19.29;63.52;100085.84;5018965;28;20049;-44
2023/08/24 02:04:31;;;;;;;11.60;5.35;;;;;;;19.29;63.25;100086.69;4999972;28;20050;-48
2023/08/24 02:06:58;;;;;;;12.32;4.30;;;;;;;19.31;63.45;100078.72;5002465;28;20057;-45
2023/08/24 02:09:25;;;;;;;9.23;4.50;;;;;;;19.31;63.76;100073.47;4999604;28;20133;-45
2023/08/24 02:11:52;;;;;;;8.88;4.43;;;;;;;19.30;63.27;100077.03;4997033;28;20043;-46
2023/08/24 02:14:19;;;;;;;9.57;4.22;;;;;;;19.27;63.38;100078.00;4997589;28;20130;-49
2023/08/24 02:16:46;;;;;;;9.20;4.50;;;;;;;19.25;64.05;100075.44;4998309;28;20050;-48
2023/08/24 02:19:14;;;;;;;10.95;4.50;;;;;;;19.25;63.72;100064.09;4997341;28;20058;-44
2023/08/24 02:21:41;;;;;;;12.68;5.22;;;;;;;19.22;63.60;100065.06;5001260;28;20068;-46
2023/08/24 02:24:08;;;;;;;10.23;4.65;;;;;;;19.18;63.37;100058.22;4999597;28;20133;-47
2023/08/24 02:26:35;;;;;;;12.80;4.95;;;;;;;19.14;63.57;100061.88;4999992;28;20054;-45
2023/08/24 02:29:02;;;;;;;12.20;4.30;;;;;;;19.11;63.85;100056.72;5000075;28;20077;-44
2023/08/24 02:31:30;;;;;;;9.52;5.07;;;;;;;19.08;63.71;100056.88;4999823;28;20077;-45
2023/08/24 02:33:57;;;;;;;12.10;4.97;;;;;;;19.02;63.65;100048.28;4989583;28;20050;-46
2023/08/24 02:36:24;;;;;;;9.48;4.70;;;;;;;19.01;63.94;100048.31;4986478;28;20050;-51
2023/08/24 02:38:51;;;;;;;12.90;4.63;;;;;;;18.98;64.05;100049.31;4988980;28;20044;-47
2023/08/24 02:41:18;;;;;;;8.65;4.65;;;;;;;18.97;64.05;100050.22;4976822;28;20130;-45
2023/08/24 02:43:45;;;;;;;10.00;4.47;;;;;;;18.98;64.49;100046.69;4986466;28;20528;-48
2023/08/24 02:46:13;;;;;;;10.73;4.82;;;;;;;18.97;64.17;100044.97;4985497;28;20053;-47
2023/08/24 02:48:40;;;;;;;10.32;4.05;;;;;;;18.98;63.98;100025.69;4984407;28;20054;-47
2023/08/24 02:51:08;;;;;;;8.90;4.03;;;;;;;18.98;64.29;100020.44;4987007;28;20052;-45
2023/08/24 02:53:34;;;;;;;7.78;3.78;;;;;;;18.95;64.09;100031.03;4986637;28;20050;-49
2023/08/24 02:56:01;;;;;;;8.70;3.25;;;;;;;18.92;64.19;100036.44;4988475;28;20056;-48
2023/08/24 02:58:29;;;;;;;9.73;4.00;;;;;;;18.90;63.72;100040.88;4989121;28;20057;-48
2023/08/24 03:00:56;;;;;;;9.95;3.50;;;;;;;18.90;63.86;100035.63;4985258;28;20077;-46
2023/08/24 03:03:24;;;;;;;9.68;3.10;;;;;;;18.90;64.41;100022.50;4989391;28;20054;-47
2023/08/24 03:05:56;;;;;;;8.25;3.60;;;;;;;18.88;64.35;100008.59;4984980;28;20053;-43
2023/08/24 03:08:23;;;;;;;7.30;3.42;;;;;;;18.87;64.18;100014.72;4985205;28;20047;-48
2023/08/24 03:10:50;;;;;;;8.38;3.83;;;;;;;18.85;64.32;100019.22;4979468;28;20038;-44
2023/08/24 03:13:17;;;;;;;7.80;3.40;;;;;;;18.85;64.20;100029.69;4982496;28;20050;-43
2023/08/24 03:15:44;;;;;;;9.25;4.30;;;;;;;18.81;64.43;100018.44;4989836;28;20045;-50
2023/08/24 03:18:12;;;;;;;9.45;4.38;;;;;;;18.80;64.50;100006.25;4983554;28;20082;-45
2023/08/24 03:20:40;;;;;;;8.18;3.83;;;;;;;18.79;64.38;99998.44;4985098;28;20043;-46
2023/08/24 03:23:07;;;;;;;8.15;4.07;;;;;;;18.78;64.84;100012.47;4981070;28;20656;-48
2023/08/24 03:25:39;;;;;;;11.18;4.07;;;;;;;18.78;64.50;100012.47;4978940;28;20051;-46
2023/08/24 03:28:07;;;;;;;9.55;4.20;;;;;;;18.78;64.54;100022.97;4986571;28;20559;-50
2023/08/24 03:30:35;;;;;;;6.75;3.55;;;;;;;18.78;64.60;100025.59;4986873;28;20042;-49
2023/08/24 03:33:04;;;;;;;7.75;3.90;;;;;;;18.78;64.87;100017.72;4983811;28;20053;-43
2023/08/24 03:35:32;;;;;;;9.70;3.92;;;;;;;18.78;65.00;100007.22;4981972;28;20054;-43
2023/08/24 03:37:59;;;;;;;9.38;3.65;;;;;;;18.78;64.76;99994.09;4985920;28;20054;-43
2023/08/24 03:40:26;;;;;;;9.35;3.55;;;;;;;18.78;64.78;99994.94;4985418;28;20050;-44
2023/08/24 03:42:53;;;;;;;8.07;3.50;;;;;;;18.78;64.97;99991.47;5000345;28;20046;-47
2023/08/24 03:45:21;;;;;;;8.52;3.40;;;;;;;18.79;65.03;99987.94;4983793;28;20442;-42
2023/08/24 03:47:48;;;;;;;8.23;3.85;;;;;;;18.78;64.82;99994.09;4986011;28;20062;-43
2023/08/24 03:50:16;;;;;;;8.05;3.38;;;;;;;18.77;65.21;99984.53;4966934;28;20061;-46
2023/08/24 03:52:43;;;;;;;9.60;3.55;;;;;;;18.77;64.34;99995.03;4979062;28;20054;-48
2023/08/24 03:55:10;;;;;;;12.25;3.13;;;;;;;18.74;64.64;99995.97;4982142;28;20052;-44
2023/08/24 03:57:37;;;;;;;11.75;4.32;;;;;;;18.74;65.24;99999.47;4981982;28;20134;-45
2023/08/24 04:00:07;;;;;;;11.88;3.85;;;;;;;18.74;65.16;100007.34;4985527;28;20050;-43
2023/08/24 04:02:34;;;;;;;9.80;3.70;;;;;;;18.75;65.02;100011.66;4984714;28;20125;-45
2023/08/24 04:05:00;;;;;;;9.00;3.80;;;;;;;18.74;65.17;100012.59;4984023;28;20054;-42
2023/08/24 04:07:27;;;;;;;7.88;3.30;;;;;;;18.74;65.01;100001.22;4985504;28;20496;-46
2023/08/24 04:09:54;;;;;;;8.15;3.30;;;;;;;18.74;65.32;100007.34;4979892;28;20062;-45
2023/08/24 04:12:20;;;;;;;8.32;4.13;;;;;;;18.74;64.94;99996.84;4982561;28;20050;-44
2023/08/24 04:14:47;;;;;;;9.50;3.33;;;;;;;18.71;65.11;99994.31;4981143;28;20054;-47
2023/08/24 04:17:14;;;;;;;11.57;3.67;;;;;;;18.70;65.41;99989.13;4981417;28;20109;-47
2023/08/24 04:19:40;;;;;;;11.68;3.85;;;;;;;18.68;65.43;99986.56;4981764;28;20129;-45
2023/08/24 04:22:07;;;;;;;8.90;3.25;;;;;;;18.65;65.24;99986.72;4982461;28;20047;-47
2023/08/24 04:24:34;;;;;;;7.63;3.20;;;;;;;18.62;65.17;99981.56;4984580;28;20050;-43
2023/08/24 04:27:01;;;;;;;12.98;3.88;;;;;;;18.60;64.88;99972.88;4986489;28;20042;-44
2023/08/24 04:29:28;;;;;;;6.63;3.22;;;;;;;18.58;64.70;99969.50;4985260;28;20050;-42
2023/08/24 04:31:54;;;;;;;13.05;3.60;;;;;;;18.57;64.81;99962.50;4984254;28;20042;-49
2023/08/24 04:34:29;;;;;;;8.27;3.80;;;;;;;18.55;65.44;99959.09;4983286;28;20050;-46
2023/08/24 04:36:56;;;;;;;9.20;3.63;;;;;;;18.55;65.25;99954.72;4983203;28;20491;-47
2023/08/24 04:39:22;;;;;;;10.38;3.92;;;;;;;18.54;65.36;99957.41;4981468;28;20054;-49
2023/08/24 04:41:49;;;;;;;7.65;3.97;;;;;;;18.55;65.42;99964.34;4985988;28;20109;-45
2023/08/24 04:44:16;;;;;;;9.30;3.60;;;;;;;18.56;65.59;99966.06;4980012;28;20077;-45
2023/08/24 04:46:42;;;;;;;7.43;3.50;;;;;;;18.53;64.96;99956.53;4984126;28;20054;-48
2023/08/24 04:49:09;;;;;;;9.30;3.70;;;;;;;18.53;65.39;99945.19;4980145;28;20050;-43
2023/08/24 04:51:36;;;;;;;9.88;4.22;;;;;;;18.51;65.36;99942.66;4979693;28;20081;-45
2023/08/24 04:54:03;;;;;;;7.90;3.67;;;;;;;18.50;65.67;99949.66;4984581;28;20690;-45
2023/08/24 04:56:29;;;;;;;10.35;4.20;;;;;;;18.49;65.59;99942.69;4982567;28;20054;-46
2023/08/24 04:58:57;;;;;;;11.25;4.22;;;;;;;18.50;65.49;99951.41;4978341;28;21257;-44
2023/08/24 05:01:25;;;;;;;9.27;3.67;;;;;;;18.47;65.77;99952.38;4990624;28;20051;-48
2023/08/24 05:03:53;;;;;;;9.77;5.28;;;;;;;18.46;65.68;99955.91;4998868;28;20423;-44
2023/08/24 05:06:21;;;;;;;8.68;4.22;;;;;;;18.43;65.62;99956.03;4987749;28;20076;-44
2023/08/24 05:08:47;;;;;;;10.05;3.95;;;;;;;18.42;65.45;99943.84;4999981;28;20050;-43
2023/08/24 05:11:18;;;;;;;10.32;3.60;;;;;;;18.42;66.08;99946.47;4984841;28;20521;-47
2023/08/24 05:13:46;;;;;;;11.13;3.92;;;;;;;18.41;65.50;99949.13;4983561;28;20042;-46
2023/08/24 05:16:13;;;;;;;8.60;3.42;;;;;;;18.40;65.57;99950.88;4981128;28;20109;-46
2023/08/24 05:18:40;;;;;;;11.07;3.63;;;;;;;18.39;66.20;99948.31;4983617;28;20096;-48
2023/08/24 05:21:07;;;;;;;9.45;3.95;;;;;;;18.37;66.38;99945.75;4985227;28;20077;-44
2023/08/24 05:23:34;;;;;;;8.13;4.00;;;;;;;18.34;65.77;99951.13;4984406;28;20042;-45
2023/08/24 05:26:02;;;;;;;10.68;4.10;;;;;;;18.33;65.53;99954.66;4976679;28;20054;-44
2023/08/24 05:28:30;;;;;;;11.70;4.10;;;;;;;18.29;66.13;99948.66;4984299;28;20491;-45
2023/08/24 05:30:58;;;;;;;10.88;4.18;;;;;;;18.29;65.79;99939.94;4981441;28;20051;-44
2023/08/24 05:33:30;;;;;;;12.95;4.65;;;;;;;18.29;66.08;99942.56;4977993;28;20047;-47
2023/08/24 05:35:58;;;;;;;15.70;3.80;;;;;;;18.31;66.56;99940.75;4995686;28;20763;-49
2023/08/24 05:38:26;;;;;;;10.40;4.10;;;;;;;18.33;65.87;99944.16;4984309;28;20062;-45
2023/08/24 05:40:52;;;;;;;10.60;3.47;;;;;;;18.35;66.15;99947.59;4985995;28;20519;-43
2023/08/24 05:43:19;;;;;;;10.65;4.50;;;;;;;18.38;65.59;99947.47;4987073;28;20308;-43
2023/08/24 05:45:48;;;;;;;10.68;3.97;;;;;;;18.41;65.95;99933.41;4986215;28;20105;-49
2023/08/24 05:48:15;;;;;;;9.88;3.60;;;;;;;18.44;66.03;99931.50;4989049;28;20105;-48
2023/08/24 05:50:46;;;;;;;10.68;4.10;;;;;;;18.46;65.94;99923.59;4986946;28;20050;-45
2023/08/24 05:53:13;;;;;;;14.60;4.32;;;;;;;18.50;66.34;99931.28;4979895;28;20062;-44
2023/08/24 05:55:40;;;;;;;9.98;4.38;;;;;;;18.54;65.89;99931.19;5004347;28;20141;-46
2023/08/24 05:58:08;;;;;;;9.00;3.72;;;;;;;18.56;65.96;99926.72;4975169;28;20057;-49
2023/08/24 06:00:35;;;;;;;9.93;4.38;;;;;;;18.58;66.43;99930.97;4999921;28;20800;-47
2023/08/24 06:03:03;;;;;;;8.32;4.47;;;;;;;18.63;66.30;99925.56;4984654;28;20154;-51
2023/08/24 06:05:32;;;;;;;10.90;4.35;;;;;;;18.71;66.25;99928.75;4985213;28;20050;-45
2023/08/24 06:07:59;;;;;;;11.00;4.10;;;;;;;18.78;66.33;99928.53;4986510;28;20050;-45
2023/08/24 06:10:26;;;;;;;7.72;3.78;;;;;;;18.86;66.42;99926.44;4989406;28;20101;-48
2023/08/24 06:12:53;;;;;;;12.32;4.38;;;;;;;18.95;66.57;99926.06;4990296;28;20058;-46
2023/08/24 06:15:23;;;;;;;9.35;4.40;;;;;;;19.02;66.36;99926.69;4990366;28;20124;-43
2023/08/24 06:17:50;;;;;;;10.23;5.15;;;;;;;19.06;66.11;99927.41;4985474;28;20047;-46
2023/08/24 06:20:19;;;;;;;9.32;4.90;;;;;;;19.11;65.99;99923.72;4987937;28;20050;-46
2023/08/24 06:22:46;;;;;;;14.75;5.53;;;;;;;19.16;66.58;99918.31;4990470;28;20049;-47
2023/08/24 06:25:13;;;;;;;12.35;6.20;;;;;;;19.20;66.25;99919.88;4989474;28;20418;-49
2023/08/24 06:27:39;;;;;;;13.35;5.05;;;;;;;19.26;65.96;99909.09;4989407;28;20086;-48
2023/08/24 06:30:07;;;;;;;13.13;4.57;;;;;;;19.32;66.15;99912.41;4989780;28;20117;-49
2023/08/24 06:32:34;;;;;;;7.63;4.68;;;;;;;19.37;66.30;99910.44;4990117;28;20042;-46
2023/08/24 06:35:01;;;;;;;12.07;3.95;;;;;;;19.43;66.20;99898.81;4989674;28;20057;-45
2023/08/24 06:37:28;;;;;;;9.38;4.10;;;;;;;19.48;65.58;99892.47;4985945;28;21940;-46
2023/08/24 06:39:55;;;;;;;8.80;4.45;;;;;;;19.52;66.01;99899.28;4984881;28;20057;-45
2023/08/24 06:42:22;;;;;;;12.48;4.55;;;;;;;19.53;66.16;99885.22;4987041;28;20044;-47
2023/08/24 06:44:49;;;;;;;8.13;3.80;;;;;;;19.55;66.10;99893.03;5006606;28;20042;-44
2023/08/24 06:47:17;;;;;;;10.82;4.88;;;;;;;19.59;65.92;99893.78;5014147;28;20056;-49
2023/08/24 06:49:44;;;;;;;12.23;6.10;;;;;;;19.68;66.14;99893.38;4986966;28;20121;-45
2023/08/24 06:52:11;;;;;;;9.93;4.07;;;;;;;19.86;66.12;99896.13;4993679;28;20053;-55
2023/08/24 06:54:39;;;;;;;10.95;4.28;;;;;;;20.06;65.94;99886.53;5012155;28;20387;-47
2023/08/24 06:57:06;;;;;;;9.65;3.85;;;;;;;20.48;66.40;99877.59;5011262;28;20057;-48
2023/08/24 06:59:33;;;;;;;9.30;4.30;;;;;;;21.17;65.92;99879.59;4981927;28;20050;-49
2023/08/24 07:02:00;;;;;;;9.80;4.05;;;;;;;21.78;64.81;99885.34;4982505;28;20042;-48
2023/08/24 07:04:27;;;;;;;14.02;3.63;;;;;;;22.30;63.83;99886.13;4984714;28;20050;-45
2023/08/24 07:06:54;;;;;;;8.88;3.47;;;;;;;22.83;63.58;99883.22;4985744;28;20142;-46
2023/08/24 07:09:22;;;;;;;7.85;3.88;;;;;;;23.37;61.94;99886.34;4982638;28;20090;-45
2023/08/24 07:11:49;;;;;;;9.15;3.13;;;;;;;23.65;60.85;99874.16;5012607;28;20054;-46
2023/08/24 07:14:16;;;;;;;8.43;2.35;;;;;;;23.66;60.89;99874.97;4979443;28;20046;-53
2023/08/24 07:16:44;;;;;;;11.77;3.10;;;;;;;23.51;60.84;99871.47;4999874;28;20046;-48
2023/08/24 07:19:11;;;;;;;6.05;2.78;;;;;;;23.34;60.59;99871.50;4998426;28;20442;-51
2023/08/24 07:21:39;;;;;;;5.93;2.95;;;;;;;23.26;60.90;99863.19;4987101;28;20034;-43
2023/08/24 07:24:07;;;;;;;8.90;3.17;;;;;;;23.48;60.45;99872.53;5009813;28;20053;-45
2023/08/24 07:26:33;;;;;;;6.32;3.10;;;;;;;24.00;60.66;99871.13;4981654;28;20107;-46
2023/08/24 07:29:00;;;;;;;5.85;2.90;;;;;;;24.35;59.76;99848.72;4987413;28;20050;-46
2023/08/24 07:31:28;;;;;;;7.03;2.65;;;;;;;24.41;58.65;99838.69;4999051;28;20147;-45
2023/08/24 07:33:54;;;;;;;5.72;2.50;;;;;;;24.41;58.84;99841.34;5003820;28;20133;-48
2023/08/24 07:36:21;;;;;;;5.15;2.78;;;;;;;24.40;59.12;99832.53;4984535;28;20129;-48
2023/08/24 07:38:48;;;;;;;6.38;2.38;;;;;;;24.74;58.27;99834.78;4985154;28;20048;-47
2023/08/24 07:41:17;;;;;;;5.53;2.47;;;;;;;25.36;57.94;99827.19;5001003;28;20052;-49
2023/08/24 07:43:44;;;;;;;7.38;2.25;;;;;;;25.96;56.79;99816.88;5004329;28;20045;-48
2023/08/24 07:46:10;;;;;;;7.28;2.50;;;;;;;26.44;55.34;99818.75;5006634;28;20077;-51
2023/08/24 07:48:37;;;;;;;7.60;4.25;;;;;;;26.65;54.73;99817.28;5003010;28;20455;-46
2023/08/24 07:51:04;;;;;;;5.45;1.85;;;;;;;26.82;53.45;99829.31;5003112;28;20069;-46
2023/08/24 07:53:32;;;;;;;4.10;1.60;;;;;;;27.00;53.34;99820.94;4996495;28;20100;-51
2023/08/24 07:56:01;;;;;;;2.95;1.40;;;;;;;27.06;53.78;99807.19;4998612;28;20190;-48
2023/08/24 07:58:31;;;;;;;4.85;1.45;;;;;;;27.27;52.67;99806.50;4996921;28;20073;-49
2023/08/24 08:00:59;;;;;;;7.88;1.77;;;;;;;27.60;52.47;99802.19;4996301;28;20136;-50
2023/08/24 08:03:27;;;;;;;3.80;1.50;;;;;;;27.61;50.94;99803.88;4992516;28;20484;-49
2023/08/24 08:05:55;;;;;;;2.53;1.45;;;;;;;27.49;51.57;99804.84;5002350;28;20062;-46
2023/08/24 08:08:22;;;;;;;4.82;1.17;;;;;;;27.53;50.90;99801.81;4990999;28;20046;-48
2023/08/24 08:10:58;;;;;;;2.78;1.20;;;;;;;27.62;51.04;99797.56;5000761;28;20527;-47
2023/08/24 08:13:26;;;;;;;7.47;1.50;;;;;;;27.59;49.76;99796.00;4979035;28;20112;-48
2023/08/24 08:15:53;;;;;;;2.05;1.10;;;;;;;27.57;50.38;99787.31;4992359;28;20054;-48
2023/08/24 08:18:20;;;;;;;4.20;0.80;;;;;;;27.87;50.56;99789.50;4994501;28;20104;-48
2023/08/24 08:20:50;;;;;;;4.45;1.10;;;;;;;28.19;49.81;99786.88;4994330;28;20049;-45
2023/08/24 08:23:17;;;;;;;2.40;0.93;;;;;;;28.30;49.87;99788.69;4991824;28;20118;-46
2023/08/24 08:25:44;;;;;;;3.17;1.45;;;;;;;28.29;48.29;99783.50;4998254;28;20057;-47
2023/08/24 08:28:11;;;;;;;1.92;0.88;;;;;;;28.34;48.67;99783.97;4996029;28;20054;-47
2023/08/24 08:30:37;;;;;;;4.32;1.30;;;;;;;28.39;48.35;99780.91;4996934;28;20543;-47
2023/08/24 08:33:04;;;;;;;7.05;1.58;;;;;;;28.50;48.42;99782.72;4996875;28;20380;-48
2023/08/24 08:35:31;;;;;;;5.53;1.17;;;;;;;28.85;48.65;99790.38;4999541;28;20041;-47
2023/08/24 08:37:58;;;;;;;7.22;1.23;;;;;;;29.08;47.01;99789.47;4995969;28;20050;-49
2023/08/24 08:40:30;;;;;;;4.38;0.98;;;;;;;28.94;47.76;99783.47;5000416;28;20129;-45
2023/08/24 08:42:59;;;;;;;3.05;1.92;;;;;;;29.11;46.67;99779.38;4995969;28;20467;-45
2023/08/24 08:45:29;;;;;;;2.08;1.42;;;;;;;29.37;45.85;99780.75;4997057;28;20082;-49
2023/08/24 08:48:01;;;;;;;2.13;1.00;;;;;;;29.55;45.60;99777.50;4995049;28;20081;-47
2023/08/24 08:50:31;;;;;;;2.67;0.98;;;;;;;29.62;44.99;99778.66;4999397;28;20061;-45
2023/08/24 08:52:58;;;;;;;4.00;0.93;;;;;;;29.79;45.26;99779.00;4994128;28;20057;-51
2023/08/24 08:55:25;;;;;;;2.60;1.42;;;;;;;29.97;44.80;99782.69;4999289;28;20449;-49
2023/08/24 08:57:58;;;;;;;4.20;2.33;;;;;;;29.98;43.55;99778.19;4990038;28;20463;-45
2023/08/24 09:00:30;;;;;;;4.22;1.40;;;;;;;29.72;43.70;99779.53;4991107;28;20046;-49
2023/08/24 09:03:01;;;;;;;2.17;0.80;;;;;;;29.66;43.68;99789.91;4995669;28;20041;-47
2023/08/24 09:05:29;;;;;;;2.25;0.70;;;;;;;29.75;43.50;99789.09;4995527;28;20053;-47
2023/08/24 09:07:57;;;;;;;4.78;1.40;;;;;;;29.95;43.13;99791.81;4997491;28;20042;-45
2023/08/24 09:10:24;;;;;;;1.60;0.75;;;;;;;30.24;42.46;99805.25;4994617;28;20057;-46
2023/08/24 09:12:50;;;;;;;2.70;1.05;;;;;;;30.52;42.38;99807.22;4995910;28;20054;-51
2023/08/24 09:15:36;;;;;;;3.70;1.30;;;;;;;30.87;42.21;99810.34;4994313;28;20046;-45
2023/08/24 09:18:03;;;;;;;3.15;1.17;;;;;;;31.15;41.77;99797.06;4999637;28;20062;-49
2023/08/24 09:20:30;;;;;;;3.45;1.17;;;;;;;31.34;40.73;99796.19;4995048;28;20045;-48
2023/08/24 09:22:58;;;;;;;2.78;1.10;;;;;;;31.36;41.10;99798.72;4995653;28;20052;-46
2023/08/24 09:25:25;;;;;;;3.85;0.90;;;;;;;31.46;39.99;99794.16;4999185;28;20046;-45
2023/08/24 09:28:03;;;;;;;2.63;0.93;;;;;;;31.52;39.07;99782.88;4999663;28;20043;-47
2023/08/24 09:30:35;;;;;;;;;;;;;;;31.60;39.91;99784.00;4997937;28;20109;-50
2023/08/24 09:33:09;;;;;;;2.25;1.38;;;;;;;31.62;39.48;99782.00;4993146;28;19929;-48
2023/08/24 09:35:36;;;;;;;2.60;1.75;;;;;;;31.68;39.01;99776.06;4994303;28;20058;-48
2023/08/24 09:38:20;;;;;;;2.03;1.10;;;;;;;32.02;38.81;99764.72;4993077;28;20089;-50
2023/08/24 09:40:52;;;;;;;2.08;1.08;;;;;;;32.34;38.45;99759.00;4995116;28;20042;-47
2023/08/24 09:43:20;;;;;;;3.58;0.95;;;;;;;32.60;38.08;99769.81;4991879;28;20057;-46
2023/08/24 09:45:50;;;;;;;2.58;1.05;;;;;;;32.79;37.95;99763.41;4994679;28;20082;-51
2023/08/24 09:48:17;;;;;;;2.40;1.25;;;;;;;33.08;37.93;99767.66;4997526;28;20077;-45
2023/08/24 09:50:46;;;;;;;3.25;1.88;;;;;;;33.25;38.17;99770.44;4997640;28;20054;-47
2023/08/24 09:53:18;;;;;;;5.93;1.48;;;;;;;33.37;38.50;99770.16;4997874;28;20049;-46
2023/08/24 09:58:27;;;;;;;3.38;1.65;;;;;;;33.21;37.56;99755.66;5026350;28;20400;-49
2023/08/24 10:00:55;;;;;;;2.65;1.73;;;;;;;32.97;37.40;99751.81;5001754;28;20042;-53
2023/08/24 10:03:25;;;;;;;3.25;1.88;;;;;;;32.66;37.63;99747.72;4999089;28;20396;-46
2023/08/24 10:05:57;;;;;;;3.85;1.75;;;;;;;32.30;38.35;99748.59;4976503;28;20399;-47
2023/08/24 10:08:37;;;;;;;3.08;1.50;;;;;;;31.94;38.60;99743.22;4976683;28;20050;-47
2023/08/24 10:11:06;;;;;;;3.20;1.33;;;;;;;31.84;39.18;99737.91;4983198;28;20062;-49
2023/08/24 10:13:58;;;;;;;2.90;1.38;;;;;;;31.93;39.34;99733.50;4983596;28;20038;-49
2023/08/24 10:16:27;;;;;;;5.18;1.92;;;;;;;32.05;39.09;99736.81;4982260;28;20039;-50
2023/08/24 10:18:55;;;;;;;4.50;1.75;;;;;;;32.06;39.13;99738.50;4982919;28;20064;-55
2023/08/24 10:21:25;;;;;;;2.55;1.20;;;;;;;32.00;38.53;99721.22;4981898;28;20109;-47
2023/08/24 10:23:53;;;;;;;4.32;1.98;;;;;;;31.89;38.48;99730.28;4980621;28;20750;-46
2023/08/24 10:26:21;;;;;;;5.45;2.33;;;;;;;31.91;39.21;99728.31;4984592;28;20055;-46
2023/08/24 10:28:50;;;;;;;5.60;2.60;;;;;;;31.97;38.82;99726.84;4982146;28;20462;-48
2023/08/24 10:31:18;;;;;;;5.38;2.30;;;;;;;31.98;39.14;99728.53;4979504;28;20422;-46
2023/08/24 10:33:47;;;;;;;;;;;;;;;31.80;39.24;99737.38;4982436;28;20074;-45
2023/08/24 10:36:16;;;;;;;6.72;2.30;;;;;;;31.68;38.64;99738.59;4981798;28;20690;-45
2023/08/24 10:38:44;;;;;;;3.53;1.45;;;;;;;31.55;39.44;99739.75;4981026;28;20050;-47
2023/08/24 10:41:13;;;;;;;3.75;1.50;;;;;;;31.63;40.16;99736.34;4974673;28;20043;-48
2023/08/24 10:43:49;;;;;;;3.83;1.58;;;;;;;31.76;39.19;99730.63;4981521;28;20046;-48
2023/08/24 10:46:16;;;;;;;5.90;1.52;;;;;;;31.80;38.96;99726.66;4982183;28;20050;-50
2023/08/24 10:51:26;;;;;;;5.63;2.88;;;;;;;31.76;37.66;99725.28;5056573;27;20391;-47
2023/08/24 10:56:38;;;;;;;3.40;1.67;;;;;;;31.84;38.58;99743.25;5019234;27;20449;-50
2023/08/24 10:59:21;;;;;;;4.35;2.05;;;;;;;32.02;38.64;99740.63;5014946;28;20384;-46
2023/08/24 11:04:27;;;;;;;3.92;1.70;;;;;;;32.24;38.16;99753.72;5100137;27;20417;-47
2023/08/24 11:06:57;;;;;;;3.58;2.03;;;;;;;32.25;38.10;99756.25;5083634;28;20074;-48
2023/08/24 11:09:24;;;;;;;4.00;1.83;;;;;;;32.29;37.75;99757.63;5083456;28;20136;-47
2023/08/24 11:12:02;;;;;;;2.60;1.85;;;;;;;32.34;37.85;99756.31;5080839;28;20052;-48
2023/08/24 11:14:30;;;;;;;2.30;1.42;;;;;;;32.39;38.21;99749.50;5082744;28;20056;-49
2023/08/24 11:17:02;;;;;;;3.33;2.55;;;;;;;32.41;37.79;99752.03;5081164;28;20124;-51
2023/08/24 11:19:30;;;;;;;5.38;1.65;;;;;;;32.39;37.44;99754.03;5077641;28;20049;-46
2023/08/24 11:21:59;;;;;;;3.95;1.42;;;;;;;32.38;37.21;99749.69;5083192;28;20493;-46
2023/08/24 11:24:28;;;;;;;3.35;1.35;;;;;;;32.42;37.66;99735.78;5080996;28;20496;-49
2023/08/24 11:26:55;;;;;;;2.97;1.85;;;;;;;32.51;37.41;99733.22;5080111;28;20693;-49
2023/08/24 11:29:24;;;;;;;4.97;1.05;;;;;;;32.52;37.46;99730.38;5082544;28;20054;-46
2023/08/24 11:31:51;;;;;;;3.60;1.40;;;;;;;32.43;36.40;99725.94;5082795;28;20040;-47
2023/08/24 11:34:18;;;;;;;3.58;1.58;;;;;;;32.39;36.44;99730.75;5079966;28;20075;-52
2023/08/24 11:36:47;;;;;;;3.50;1.45;;;;;;;32.37;36.53;99721.19;5082457;28;20539;-48
2023/08/24 11:39:17;;;;;;;5.07;1.85;;;;;;;32.54;36.40;99717.69;5081164;28;20059;-49
2023/08/24 11:41:44;;;;;;;3.55;1.63;;;;;;;32.74;36.71;99730.88;5083815;28;20044;-47
2023/08/24 11:44:11;;;;;;;3.25;1.08;;;;;;;32.85;36.80;99728.94;5082881;28;20421;-48
2023/08/24 11:46:57;;;;;;;3.08;1.58;;;;;;;32.92;36.19;99720.09;5075091;28;20050;-44
2023/08/24 11:49:25;;;;;;;1.80;1.27;;;;;;;32.88;35.63;99725.91;5081531;28;20130;-47